Time;durP1;ratioP1;P1;durP2;ratioP2;P2;SDS_P1;SDS_P2;PMS_P1;PMS_P2;Temp;Humidity;BMP_temperature;BMP_pressure;BME280_temperature;BME280_humidity;BME280_pressure;Samples;Min_cycle;Max_cycle;Signal;HPM_P1;HPM_P2
2022/09/08 00:01:22;;;;;;;5.93;2.10;;;;;;;23.95;65.60;99682.81;5070332;28;20401;-69
2022/09/08 00:03:49;;;;;;;5.40;2.00;;;;;;;23.94;66.09;99686.91;5048534;28;20231;-69
2022/09/08 00:06:16;;;;;;;5.57;1.77;;;;;;;23.94;65.87;99678.25;5049552;28;20310;-69
2022/09/08 00:08:43;;;;;;;3.80;2.30;;;;;;;23.95;65.90;99670.44;5031866;28;20414;-69
2022/09/08 00:11:09;;;;;;;5.60;2.20;;;;;;;23.95;65.64;99682.81;5032023;28;20399;-69
2022/09/08 00:13:36;;;;;;;4.07;2.10;;;;;;;23.95;65.80;99687.75;5050105;28;20465;-69
2022/09/08 00:16:03;;;;;;;6.37;1.90;;;;;;;23.95;65.76;99691.44;5032163;28;20182;-69
2022/09/08 00:18:29;;;;;;;5.87;2.00;;;;;;;23.96;65.73;99684.44;5034913;28;20513;-69
2022/09/08 00:20:54;;;;;;;5.90;2.60;;;;;;;23.95;65.67;99685.69;5060215;28;20422;-69
2022/09/08 00:23:20;;;;;;;4.23;1.80;;;;;;;23.97;65.90;99691.00;5058240;28;20180;-69
2022/09/08 00:25:45;;;;;;;6.40;2.40;;;;;;;23.96;65.67;99693.06;5051469;28;20236;-69
2022/09/08 00:28:11;;;;;;;4.70;1.63;;;;;;;23.98;65.77;99698.41;5069272;28;20193;-69
2022/09/08 00:30:37;;;;;;;4.40;2.00;;;;;;;23.96;65.95;99704.63;5067892;28;20602;-69
2022/09/08 00:33:02;;;;;;;4.27;1.97;;;;;;;23.97;65.52;99711.19;5068301;28;20412;-69
2022/09/08 00:35:28;;;;;;;4.73;2.10;;;;;;;23.97;65.53;99699.66;5051434;28;20155;-69
2022/09/08 00:37:53;;;;;;;4.37;2.00;;;;;;;23.96;65.84;99704.63;5068176;28;20166;-69
2022/09/08 00:40:20;;;;;;;5.40;2.13;;;;;;;23.97;65.88;99700.47;5069807;28;20241;-69
2022/09/08 00:42:46;;;;;;;3.00;1.80;;;;;;;23.97;65.73;99709.13;5051990;28;20171;-69
2022/09/08 00:45:12;;;;;;;8.87;2.80;;;;;;;23.96;65.58;99704.63;5051988;28;20479;-69
2022/09/08 00:47:43;;;;;;;4.80;2.20;;;;;;;23.96;65.65;99713.25;5036543;28;20252;-69
2022/09/08 00:50:23;;;;;;;7.70;2.13;;;;;;;23.95;65.53;99699.28;5052187;28;20509;-69
2022/09/08 00:52:52;;;;;;;5.50;2.70;;;;;;;23.92;65.85;99700.94;5054072;28;20399;-69
2022/09/08 00:55:18;;;;;;;5.37;2.20;;;;;;;23.92;65.62;99691.47;5072651;28;20817;-69
2022/09/08 00:57:44;;;;;;;4.93;2.70;;;;;;;23.92;66.06;99689.41;5055983;28;20478;-70
2022/09/08 01:00:38;;;;;;;10.50;2.30;;;;;;;23.93;65.76;99675.81;5073441;28;20405;-69
2022/09/08 01:03:06;;;;;;;5.27;2.40;;;;;;;23.93;65.78;99673.75;5051977;28;20231;-69
2022/09/08 01:05:46;;;;;;;8.93;2.30;;;;;;;23.93;65.85;99673.75;5038194;28;20418;-69
2022/09/08 01:14:47;;;;;;;9.07;2.30;;;;;;;23.83;66.38;99673.88;5038010;28;20413;-69
2022/09/08 01:17:24;;;;;;;7.17;3.03;;;;;;;23.83;66.75;99677.56;5051535;28;20426;-70
2022/09/08 01:19:50;;;;;;;3.47;1.80;;;;;;;23.81;66.69;99665.66;5051819;28;20424;-69
2022/09/08 01:22:30;;;;;;;6.13;2.47;;;;;;;23.80;66.96;99654.53;5054156;28;20441;-69
2022/09/08 01:25:19;;;;;;;5.17;2.10;;;;;;;23.74;67.54;99654.19;5070841;28;20212;-70
2022/09/08 01:27:46;;;;;;;4.70;2.33;;;;;;;23.78;67.08;99654.19;5071254;28;20499;-69
2022/09/08 01:30:12;;;;;;;5.13;2.50;;;;;;;23.79;66.93;99656.59;5038039;28;20492;-69
2022/09/08 01:32:38;;;;;;;6.63;2.70;;;;;;;23.72;67.25;99653.00;5054966;28;20444;-69
2022/09/08 01:35:04;;;;;;;5.97;2.60;;;;;;;23.77;67.09;99649.63;5055195;28;20190;-70
2022/09/08 01:37:30;;;;;;;6.83;2.50;;;;;;;23.75;67.68;99646.38;5070879;28;20452;-70
2022/09/08 01:39:57;;;;;;;5.07;2.00;;;;;;;23.78;66.94;99642.66;5037561;28;20484;-69
2022/09/08 01:42:23;;;;;;;9.90;3.00;;;;;;;23.73;67.35;99641.03;5071005;28;20179;-69
2022/09/08 01:44:48;;;;;;;7.27;2.70;;;;;;;23.76;67.19;99643.06;5072609;28;20401;-69
2022/09/08 01:47:14;;;;;;;8.60;3.10;;;;;;;23.79;67.08;99650.03;5070623;28;20199;-70
2022/09/08 01:49:39;;;;;;;7.37;2.80;;;;;;;23.79;66.72;99653.72;5050668;28;20184;-69
2022/09/08 01:52:05;;;;;;;5.97;2.60;;;;;;;23.80;66.97;99655.38;5051379;28;20160;-69
2022/09/08 01:54:30;;;;;;;4.83;2.10;;;;;;;23.80;66.92;99655.38;5050531;28;20186;-69
2022/09/08 01:56:56;;;;;;;7.63;3.03;;;;;;;23.73;67.39;99664.09;5067378;28;20621;-70
2022/09/08 01:59:21;;;;;;;6.33;2.20;;;;;;;23.72;67.24;99667.41;5053760;28;20586;-70
2022/09/08 02:01:47;;;;;;;8.60;2.47;;;;;;;23.76;67.48;99654.59;5053181;28;20564;-69
2022/09/08 02:04:12;;;;;;;6.53;2.33;;;;;;;23.78;66.80;99652.09;5070633;28;20302;-69
2022/09/08 02:06:38;;;;;;;6.43;2.60;;;;;;;23.80;66.84;99646.72;5054487;28;20233;-70
2022/09/08 02:09:03;;;;;;;7.40;2.93;;;;;;;23.81;66.90;99647.53;5070329;28;20167;-70
2022/09/08 02:11:29;;;;;;;7.17;2.47;;;;;;;23.80;67.07;99649.63;5053904;28;20645;-69
2022/09/08 02:13:54;;;;;;;4.70;2.50;;;;;;;23.79;67.04;99647.94;5054081;28;20519;-69
2022/09/08 02:16:20;;;;;;;7.33;3.00;;;;;;;23.57;68.17;99646.59;5052268;28;20178;-69
2022/09/08 02:18:46;;;;;;;6.47;2.57;;;;;;;23.64;67.54;99648.59;5034268;28;20180;-69
2022/09/08 02:21:12;;;;;;;8.03;2.77;;;;;;;23.67;67.93;99656.34;5036973;28;20199;-69
2022/09/08 02:23:39;;;;;;;4.20;2.43;;;;;;;23.73;67.30;99666.97;5054379;28;20496;-69
2022/09/08 02:26:05;;;;;;;6.90;2.57;;;;;;;23.62;68.11;99668.34;5034402;28;20483;-70
2022/09/08 02:28:30;;;;;;;7.20;2.90;;;;;;;23.52;68.26;99667.25;5033930;28;20498;-69
2022/09/08 02:30:59;;;;;;;4.03;2.20;;;;;;;23.66;67.61;99664.19;5051025;28;20247;-69
2022/09/08 02:33:26;;;;;;;6.03;2.73;;;;;;;23.73;67.15;99666.19;5049201;28;20168;-69
2022/09/08 02:35:52;;;;;;;5.77;2.60;;;;;;;23.39;69.04;99668.25;5033074;28;20425;-69
2022/09/08 02:38:17;;;;;;;8.63;2.70;;;;;;;23.51;68.59;99654.09;5048786;28;20418;-69
2022/09/08 02:40:42;;;;;;;5.60;2.40;;;;;;;23.59;67.90;99644.09;5048938;28;20179;-69
2022/09/08 02:43:09;;;;;;;3.40;2.13;;;;;;;23.54;68.61;99656.09;5049675;28;20180;-70
2022/09/08 02:45:40;;;;;;;5.20;2.47;;;;;;;23.32;69.36;99651.84;5049536;28;20218;-69
2022/09/08 02:48:06;;;;;;;4.80;2.50;;;;;;;23.23;70.08;99642.09;5050832;28;20829;-69
2022/09/08 02:50:31;;;;;;;6.70;2.73;;;;;;;23.17;70.54;99650.34;5061905;28;20425;-69
2022/09/08 02:52:56;;;;;;;5.73;2.90;;;;;;;23.14;70.23;99653.28;5052986;28;20625;-70
2022/09/08 02:55:23;;;;;;;4.40;2.70;;;;;;;22.76;71.90;99652.41;5069966;28;20657;-70
2022/09/08 02:57:49;;;;;;;7.70;2.73;;;;;;;22.77;72.25;99659.81;5051380;28;20160;-69
2022/09/08 03:00:15;;;;;;;5.53;2.33;;;;;;;22.54;73.24;99661.66;5049375;28;20445;-69
2022/09/08 03:02:40;;;;;;;7.17;2.87;;;;;;;22.45;73.35;99670.78;5037212;28;20450;-69
2022/09/08 03:05:06;;;;;;;7.57;2.43;;;;;;;22.70;72.00;99680.03;5053239;28;20229;-69
2022/09/08 03:07:32;;;;;;;3.90;2.30;;;;;;;22.60;72.30;99683.81;5069015;28;20621;-69
2022/09/08 03:09:57;;;;;;;4.67;2.50;;;;;;;22.78;71.77;99692.31;5068777;28;20515;-70
2022/09/08 03:12:26;;;;;;;6.43;2.40;;;;;;;22.80;71.43;99681.16;5053033;28;20167;-70
2022/09/08 03:14:52;;;;;;;8.47;2.10;;;;;;;22.62;72.16;99697.78;5070715;28;20224;-69
2022/09/08 03:17:18;;;;;;;5.40;2.13;;;;;;;22.87;70.33;99699.19;5070683;28;20394;-70
2022/09/08 03:19:43;;;;;;;11.27;2.63;;;;;;;22.81;69.71;99706.66;5070191;28;20159;-69
2022/09/08 03:22:09;;;;;;;7.40;2.20;;;;;;;22.65;70.21;99711.31;5067624;28;20159;-70
2022/09/08 03:24:34;;;;;;;3.30;1.80;;;;;;;22.91;68.82;99717.25;5070648;28;20571;-69
2022/09/08 03:27:00;;;;;;;3.77;1.60;;;;;;;22.89;68.13;99708.25;5070362;28;20646;-70
2022/09/08 03:29:28;;;;;;;4.57;1.90;;;;;;;22.98;67.54;99708.53;5051575;28;20174;-69
2022/09/08 03:31:53;;;;;;;4.17;1.67;;;;;;;23.13;66.64;99709.25;5044646;28;20170;-69
2022/09/08 03:34:19;;;;;;;4.60;1.50;;;;;;;23.17;65.79;99702.19;5055755;28;20424;-70
2022/09/08 03:36:44;;;;;;;4.33;1.30;;;;;;;23.15;65.24;99698.09;5053703;28;20539;-69
2022/09/08 03:39:10;;;;;;;3.50;1.27;;;;;;;23.09;64.80;99696.94;5073495;28;20163;-69
2022/09/08 03:41:35;;;;;;;4.80;1.40;;;;;;;22.98;65.12;99708.53;5032413;28;20174;-69
2022/09/08 03:44:01;;;;;;;4.20;1.37;;;;;;;22.97;65.05;99709.78;5070077;28;20170;-69
2022/09/08 03:46:27;;;;;;;3.17;0.90;;;;;;;23.07;64.50;99714.63;5051519;28;20219;-69
2022/09/08 03:48:52;;;;;;;3.00;0.90;;;;;;;22.93;64.49;99726.28;5069727;28;20417;-69
2022/09/08 03:51:25;;;;;;;3.73;1.40;;;;;;;23.01;64.27;99716.34;5070109;28;20511;-69
2022/09/08 03:54:46;;;;;;;3.60;0.90;;;;;;;23.15;63.82;99733.50;5043117;28;20178;-69
2022/09/08 03:56:39;;;;;;;4.50;0.90;;;;;;;23.20;63.55;99729.34;5055145;28;20479;-69
2022/09/08 03:59:05;;;;;;;3.33;1.20;;;;;;;23.07;63.92;99733.97;5051279;28;20410;-69
2022/09/08 04:01:30;;;;;;;3.70;1.03;;;;;;;23.19;63.61;99731.41;5051601;28;20170;-69
2022/09/08 04:03:56;;;;;;;3.73;0.90;;;;;;;23.09;63.60;99732.28;5070754;28;20222;-69
2022/09/08 04:06:21;;;;;;;4.33;1.17;;;;;;;23.22;63.29;99721.91;5087964;28;20195;-69
2022/09/08 04:08:47;;;;;;;2.27;1.00;;;;;;;23.29;62.90;99724.72;5089746;28;20170;-69
2022/09/08 04:11:12;;;;;;;6.30;1.27;;;;;;;23.33;62.87;99721.81;5089880;28;20154;-69
2022/09/08 04:13:38;;;;;;;3.20;1.20;;;;;;;23.34;62.82;99730.00;5071766;28;20162;-70
2022/09/08 04:16:03;;;;;;;2.23;0.80;;;;;;;23.35;63.04;99731.69;5047074;28;20916;-69
2022/09/08 04:18:29;;;;;;;2.90;0.90;;;;;;;23.39;62.83;99726.66;5051145;28;20179;-70
2022/09/08 04:20:59;;;;;;;3.70;0.80;;;;;;;23.40;62.90;99730.38;5068073;28;20182;-69
2022/09/08 04:23:24;;;;;;;5.83;1.00;;;;;;;23.38;62.61;99747.28;5067769;28;20216;-70
2022/09/08 04:26:03;;;;;;;2.83;0.97;;;;;;;23.33;63.02;99744.88;5068324;28;20406;-70
2022/09/08 04:28:29;;;;;;;3.00;1.13;;;;;;;23.33;62.84;99742.78;5068661;28;20167;-70
2022/09/08 04:30:54;;;;;;;1.60;0.97;;;;;;;23.34;62.87;99734.97;5067476;28;20973;-69
2022/09/08 04:33:20;;;;;;;3.27;1.20;;;;;;;23.34;62.95;99730.00;5084649;28;20179;-70
2022/09/08 04:35:45;;;;;;;4.30;1.10;;;;;;;23.12;63.43;99745.03;5088663;28;20508;-69
2022/09/08 04:38:11;;;;;;;7.70;1.00;;;;;;;23.15;63.72;99739.25;5089221;28;20169;-70
2022/09/08 04:40:36;;;;;;;2.70;1.00;;;;;;;23.22;63.39;99729.72;5070466;28;20565;-70
2022/09/08 04:43:02;;;;;;;3.40;1.00;;;;;;;23.04;63.98;99727.03;5054034;28;20175;-70
2022/09/08 04:45:27;;;;;;;3.00;1.17;;;;;;;23.17;63.89;99735.91;5070197;28;20198;-69
2022/09/08 04:47:52;;;;;;;4.33;1.00;;;;;;;23.22;63.49;99735.50;5089449;28;20194;-70
2022/09/08 04:50:18;;;;;;;3.70;1.07;;;;;;;23.17;63.34;99745.38;5071214;28;20169;-70
2022/09/08 04:52:43;;;;;;;2.70;1.10;;;;;;;23.19;63.46;99750.75;5071521;28;20178;-69
2022/09/08 04:55:10;;;;;;;2.80;1.03;;;;;;;23.23;63.52;99758.13;5071348;28;20162;-70
2022/09/08 04:57:36;;;;;;;2.03;0.90;;;;;;;23.26;62.81;99757.28;5071716;28;20179;-70
2022/09/08 05:00:03;;;;;;;5.10;1.30;;;;;;;23.26;62.86;99754.41;5070005;28;20420;-70
2022/09/08 05:02:29;;;;;;;3.40;1.03;;;;;;;23.17;63.08;99753.19;5047355;28;20242;-70
2022/09/08 05:04:54;;;;;;;2.83;0.90;;;;;;;22.90;63.97;99747.28;5054713;28;20416;-69
2022/09/08 05:07:19;;;;;;;3.80;1.20;;;;;;;22.97;63.57;99741.47;5071213;28;20198;-70
2022/09/08 05:09:45;;;;;;;1.93;0.90;;;;;;;23.14;63.06;99749.09;5054334;28;20159;-69
2022/09/08 05:12:10;;;;;;;2.67;1.00;;;;;;;23.21;62.70;99763.50;5071612;28;20182;-69
2022/09/08 05:14:36;;;;;;;4.97;1.20;;;;;;;23.05;62.98;99771.00;5088979;28;20189;-69
2022/09/08 05:17:02;;;;;;;3.47;1.30;;;;;;;22.92;63.70;99776.47;5054818;28;20219;-69
2022/09/08 05:19:27;;;;;;;4.10;1.37;;;;;;;22.98;63.71;99771.88;5070285;28;20799;-69
2022/09/08 05:21:53;;;;;;;4.93;1.10;;;;;;;23.05;63.41;99773.88;5071076;28;20240;-70
2022/09/08 05:24:19;;;;;;;2.03;1.10;;;;;;;23.10;63.26;99785.78;5071151;28;20182;-69
2022/09/08 05:26:44;;;;;;;1.97;1.10;;;;;;;22.55;65.23;99790.72;5089284;28;20213;-69
2022/09/08 05:29:10;;;;;;;7.63;1.07;;;;;;;22.78;64.40;99793.84;5070414;28;20186;-70
2022/09/08 05:31:35;;;;;;;7.13;1.20;;;;;;;22.91;63.60;99792.09;5070593;28;20158;-69
2022/09/08 05:34:01;;;;;;;4.97;1.10;;;;;;;22.99;63.45;99792.88;5054558;28;20240;-70
2022/09/08 05:36:28;;;;;;;2.20;1.00;;;;;;;22.80;63.76;99796.28;5052240;28;20167;-70
2022/09/08 05:38:54;;;;;;;3.13;1.10;;;;;;;22.66;64.51;99799.28;5037333;28;20415;-69
2022/09/08 05:41:20;;;;;;;2.20;1.10;;;;;;;22.49;64.69;99803.91;5071276;28;20428;-69
2022/09/08 05:43:45;;;;;;;6.07;1.40;;;;;;;22.47;64.74;99800.63;5072173;28;20179;-69
2022/09/08 05:46:11;;;;;;;2.87;1.10;;;;;;;22.51;64.92;99801.44;5040764;28;20178;-70
2022/09/08 05:48:36;;;;;;;4.43;1.30;;;;;;;22.69;63.91;99802.16;5074439;28;20245;-70
2022/09/08 05:51:05;;;;;;;4.00;1.13;;;;;;;22.91;63.35;99799.91;5073920;28;20211;-70
2022/09/08 05:53:31;;;;;;;4.10;1.20;;;;;;;22.83;63.43;99798.34;5071169;28;20180;-70
2022/09/08 05:56:00;;;;;;;3.30;1.17;;;;;;;22.89;62.98;99799.53;5070868;28;20412;-70
2022/09/08 05:58:26;;;;;;;2.43;1.13;;;;;;;22.86;63.50;99795.44;5071772;28;20174;-70
2022/09/08 06:01:04;;;;;;;3.83;1.50;;;;;;;22.77;63.89;99800.84;5070550;28;20405;-70
2022/09/08 06:03:29;;;;;;;5.53;1.33;;;;;;;22.96;62.84;99800.28;5058034;28;20229;-70
2022/09/08 06:05:55;;;;;;;4.43;1.33;;;;;;;22.94;63.20;99805.66;5056041;28;20423;-70
2022/09/08 06:08:21;;;;;;;2.90;1.20;;;;;;;22.97;62.88;99812.63;5069634;28;20202;-69
2022/09/08 06:10:51;;;;;;;3.70;1.60;;;;;;;23.03;62.88;99817.50;5071429;28;20209;-69
2022/09/08 06:13:16;;;;;;;4.40;1.17;;;;;;;23.02;62.48;99815.06;5090201;28;20392;-70
2022/09/08 06:15:42;;;;;;;3.93;1.20;;;;;;;22.83;63.50;99822.19;5072539;28;20489;-70
2022/09/08 06:18:07;;;;;;;4.90;1.40;;;;;;;22.51;63.77;99824.44;5072634;28;20625;-70
2022/09/08 06:20:32;;;;;;;5.73;1.20;;;;;;;22.78;63.60;99819.75;5072690;28;20545;-70
2022/09/08 06:22:58;;;;;;;2.00;1.30;;;;;;;22.91;63.47;99826.66;5053069;28;20620;-70
2022/09/08 06:25:23;;;;;;;7.27;1.80;;;;;;;22.24;65.08;99825.38;5070191;28;20498;-71
2022/09/08 06:27:54;;;;;;;2.50;1.10;;;;;;;22.71;64.54;99839.94;5069604;28;20207;-70
2022/09/08 06:30:19;;;;;;;3.73;1.23;;;;;;;22.79;66.21;99838.69;5080502;28;20190;-69
2022/09/08 06:33:02;;;;;;;3.30;1.83;;;;;;;23.04;65.19;99827.81;5074068;28;20428;-68
2022/09/08 06:35:34;;;;;;;6.60;1.70;;;;;;;23.22;65.88;99836.31;5042086;28;20201;-70
2022/09/08 06:38:01;;;;;;;9.87;2.23;;;;;;;22.86;67.70;99834.91;5073299;28;20424;-66
2022/09/08 06:40:33;;;;;;;4.73;1.70;;;;;;;22.94;66.45;99845.97;5072630;28;20397;-71
2022/09/08 06:43:02;;;;;;;7.27;1.70;;;;;;;22.76;66.25;99839.50;5073253;28;20416;-70
2022/09/08 06:45:30;;;;;;;6.90;1.50;;;;;;;22.52;64.28;99842.53;5071947;28;20519;-70
2022/09/08 06:48:26;;;;;;;5.17;1.30;;;;;;;22.58;65.66;99849.47;5080483;28;20879;-70
2022/09/08 06:51:06;;;;;;;4.73;1.17;;;;;;;22.56;65.55;99849.06;5056275;28;21010;-70
2022/09/08 06:53:57;;;;;;;4.70;1.50;;;;;;;22.88;63.92;99841.88;5068089;28;20413;-69
2022/09/08 06:57:05;;;;;;;4.90;1.13;;;;;;;22.94;63.20;99850.91;5061869;28;21320;-70
2022/09/08 07:00:00;;;;;;;4.47;1.20;;;;;;;22.96;62.86;99852.13;5066662;28;20416;-69
2022/09/08 07:02:54;;;;;;;4.70;1.40;;;;;;;22.86;63.64;99855.88;5057562;28;20428;-70
2022/09/08 07:05:56;;;;;;;3.80;1.20;;;;;;;22.70;63.08;99858.47;5092094;28;20511;-70
2022/09/08 07:09:02;;;;;;;2.43;1.20;;;;;;;22.91;63.17;99858.31;5072962;28;20462;-70
2022/09/08 07:11:41;;;;;;;2.80;1.20;;;;;;;22.90;62.17;99861.63;5073571;28;20424;-70
2022/09/08 07:14:44;;;;;;;3.33;1.07;;;;;;;22.86;62.58;99863.69;5072481;28;20451;-70
2022/09/08 07:17:10;;;;;;;5.70;0.80;;;;;;;22.86;62.77;99866.56;5088482;28;20435;-69
2022/09/08 07:19:54;;;;;;;3.07;1.00;;;;;;;22.95;62.49;99873.53;5088189;28;20424;-70
2022/09/08 07:22:38;;;;;;;3.53;1.30;;;;;;;22.77;62.89;99872.00;5065296;28;20186;-70
2022/09/08 07:25:17;;;;;;;3.50;1.20;;;;;;;22.87;62.50;99863.28;5036425;28;20401;-70
2022/09/08 07:27:43;;;;;;;3.90;1.27;;;;;;;22.66;63.10;99872.03;5053246;28;20457;-72
2022/09/08 07:30:16;;;;;;;8.00;1.90;;;;;;;22.39;64.13;99876.69;5022881;28;20512;-69
2022/09/08 07:32:42;;;;;;;2.60;1.00;;;;;;;22.73;64.25;99869.13;5044982;28;20444;-68
2022/09/08 07:35:28;;;;;;;3.30;1.23;;;;;;;22.93;63.89;99875.97;5049741;28;20444;-71
2022/09/08 07:37:54;;;;;;;5.73;1.30;;;;;;;23.07;62.23;99880.81;5056165;28;20436;-70
2022/09/08 07:40:25;;;;;;;2.83;1.30;;;;;;;22.99;62.41;99868.56;5055034;28;20420;-69
2022/09/08 07:42:54;;;;;;;4.23;1.17;;;;;;;22.96;62.85;99874.31;5056043;28;20405;-70
2022/09/08 07:45:20;;;;;;;4.40;1.00;;;;;;;22.99;63.00;99871.44;5055277;28;20477;-69
2022/09/08 07:48:17;;;;;;;2.07;0.90;;;;;;;22.90;63.09;99876.00;5084404;28;20456;-70
2022/09/08 07:50:55;;;;;;;4.13;1.20;;;;;;;22.44;64.30;99876.28;5030296;28;20340;-69
2022/09/08 07:53:38;;;;;;;3.60;1.20;;;;;;;22.51;64.30;99876.22;5036280;28;20421;-71
2022/09/08 07:56:27;;;;;;;3.33;1.20;;;;;;;22.31;64.61;99872.19;5038850;28;20444;-71
2022/09/08 07:59:04;;;;;;;2.30;0.80;;;;;;;21.89;65.28;99883.81;5051645;28;20409;-70
2022/09/08 08:01:30;;;;;;;4.07;0.90;;;;;;;21.89;64.51;99885.88;5070924;28;20778;-71
2022/09/08 08:04:26;;;;;;;3.60;1.07;;;;;;;22.22;63.69;99886.16;5086131;28;20468;-72
2022/09/08 08:06:52;;;;;;;6.67;3.10;;;;;;;21.69;64.87;99884.66;5070961;28;20214;-71
2022/09/08 08:09:45;;;;;;;2.50;1.17;;;;;;;22.05;63.31;99878.44;5089721;28;20404;-72
2022/09/08 08:12:30;;;;;;;3.97;0.90;;;;;;;22.17;62.79;99889.47;5089829;28;20484;-72
2022/09/08 08:15:13;;;;;;;4.57;1.33;;;;;;;21.72;64.49;99889.59;5073238;28;20432;-72
2022/09/08 08:17:45;;;;;;;2.17;1.07;;;;;;;21.72;63.38;99890.41;5051414;28;20497;-71
2022/09/08 08:20:27;;;;;;;10.43;0.80;;;;;;;22.12;62.75;99892.78;5053784;28;20444;-72
2022/09/08 08:23:05;;;;;;;3.50;0.90;;;;;;;22.34;61.93;99894.38;5072394;28;20467;-72
2022/09/08 08:25:47;;;;;;;4.97;0.77;;;;;;;22.22;62.36;99903.44;5078437;28;20519;-72
2022/09/08 08:28:21;;;;;;;2.00;0.63;;;;;;;21.69;63.23;99902.75;5071183;28;20506;-72
2022/09/08 08:30:54;;;;;;;2.03;0.70;;;;;;;21.82;63.11;99903.94;5085535;28;20431;-72
2022/09/08 08:33:22;;;;;;;4.00;1.10;;;;;;;22.02;62.14;99899.38;5070893;28;20427;-72
2022/09/08 08:36:01;;;;;;;2.00;0.60;;;;;;;21.76;62.39;99905.59;5054955;28;20762;-72
2022/09/08 08:38:48;;;;;;;1.80;0.60;;;;;;;21.84;61.94;99904.34;5058293;28;20420;-72
2022/09/08 08:41:35;;;;;;;3.73;0.83;;;;;;;21.58;62.13;99910.50;5087663;28;20440;-72
2022/09/08 08:44:41;;;;;;;3.73;0.80;;;;;;;21.67;61.98;99918.72;5085273;28;20416;-72
2022/09/08 08:47:26;;;;;;;6.43;1.10;;;;;;;21.78;61.12;99917.47;5088754;28;20444;-71
2022/09/08 08:50:11;;;;;;;2.10;0.83;;;;;;;21.84;60.82;99910.09;5087495;28;20457;-71
2022/09/08 08:52:49;;;;;;;1.83;0.80;;;;;;;21.82;60.51;99917.50;5083317;28;20425;-71
2022/09/08 08:55:44;;;;;;;2.33;0.77;;;;;;;21.81;60.60;99910.91;5059721;28;20449;-71
2022/09/08 08:58:37;;;;;;;2.90;0.70;;;;;;;21.84;60.25;99904.34;5073117;28;20447;-71
2022/09/08 09:01:06;;;;;;;2.67;0.80;;;;;;;22.05;60.72;99901.44;5083740;28;20436;-71
2022/09/08 09:04:05;;;;;;;3.40;0.67;;;;;;;22.18;59.77;99905.50;5086956;28;20559;-72
2022/09/08 09:06:54;;;;;;;2.03;0.87;;;;;;;22.21;60.31;99901.78;5068195;28;20465;-72
2022/09/08 09:09:44;;;;;;;5.37;0.70;;;;;;;22.26;60.47;99903.41;5057827;28;20647;-70
2022/09/08 09:12:16;;;;;;;3.40;1.00;;;;;;;22.30;59.72;99909.97;5012935;28;20429;-71
2022/09/08 09:15:06;;;;;;;4.73;1.17;;;;;;;22.40;60.07;99904.19;5089122;28;20771;-71
2022/09/08 09:17:41;;;;;;;2.00;0.73;;;;;;;22.35;60.08;99901.75;5063067;28;20438;-71
2022/09/08 09:20:18;;;;;;;1.57;0.60;;;;;;;22.56;59.41;99898.81;5083559;28;20420;-71
2022/09/08 09:22:56;;;;;;;4.03;1.00;;;;;;;22.13;59.45;99899.38;5086611;28;20420;-70
2022/09/08 09:25:33;;;;;;;9.00;1.20;;;;;;;22.18;60.32;99902.63;5092312;28;20443;-70
2022/09/08 09:28:01;;;;;;;6.20;1.30;;;;;;;22.37;59.85;99910.78;5057979;28;20531;-69
2022/09/08 09:30:34;;;;;;;3.50;0.90;;;;;;;22.46;59.78;99905.44;5066761;28;20420;-70
2022/09/08 09:33:17;;;;;;;3.20;0.80;;;;;;;22.52;59.32;99903.75;5074185;28;20810;-69
2022/09/08 09:35:55;;;;;;;3.93;0.90;;;;;;;22.56;59.03;99898.81;5092532;28;20871;-70
2022/09/08 09:38:48;;;;;;;2.40;0.87;;;;;;;22.54;58.53;99891.84;5091755;28;20447;-70
2022/09/08 09:41:55;;;;;;;3.80;1.10;;;;;;;22.68;57.89;99889.69;5091838;28;20408;-70
2022/09/08 09:44:57;;;;;;;4.60;1.00;;;;;;;22.69;57.80;99890.53;5074012;28;20515;-70
2022/09/08 09:47:47;;;;;;;2.67;1.20;;;;;;;22.47;56.58;99895.56;5073938;28;20440;-70
2022/09/08 09:50:37;;;;;;;3.27;0.80;;;;;;;22.63;57.20;99890.13;5051258;28;20524;-70
2022/09/08 09:53:22;;;;;;;5.30;1.60;;;;;;;22.55;56.02;99902.09;5088017;28;20394;-70
2022/09/08 09:56:15;;;;;;;5.50;1.20;;;;;;;22.68;56.37;99895.44;5067996;28;20425;-70
2022/09/08 09:58:48;;;;;;;6.07;1.17;;;;;;;22.69;56.59;99891.38;5071195;28;20448;-70
2022/09/08 10:01:30;;;;;;;3.87;1.00;;;;;;;22.75;55.92;99891.72;5053266;28;20833;-70
2022/09/08 10:04:04;;;;;;;2.93;1.07;;;;;;;22.58;54.87;99893.44;5052961;28;20876;-70
2022/09/08 10:06:56;;;;;;;6.90;1.37;;;;;;;22.72;55.96;99884.75;5071013;28;20499;-70
2022/09/08 10:09:38;;;;;;;4.70;1.00;;;;;;;22.75;55.50;99892.56;5083268;28;20915;-70
2022/09/08 10:12:11;;;;;;;2.90;1.20;;;;;;;22.78;55.54;99888.81;5070449;28;20496;-70
2022/09/08 10:15:05;;;;;;;4.43;1.10;;;;;;;22.68;55.17;99888.91;5071966;28;20402;-70
2022/09/08 10:17:41;;;;;;;4.70;1.33;;;;;;;22.64;55.26;99896.72;5055289;28;20845;-70
2022/09/08 10:20:19;;;;;;;5.33;1.43;;;;;;;22.64;55.56;99891.81;5054135;28;20501;-70
2022/09/08 10:23:06;;;;;;;3.03;1.00;;;;;;;22.56;55.54;99887.31;5071573;28;20429;-70
2022/09/08 10:25:59;;;;;;;4.87;1.60;;;;;;;22.58;55.64;99890.56;5070178;28;20398;-70
2022/09/08 10:28:46;;;;;;;9.80;1.90;;;;;;;22.70;55.74;99886.41;5071252;28;20451;-70
2022/09/08 10:31:20;;;;;;;8.70;1.63;;;;;;;22.77;55.45;99884.31;5071153;28;20492;-70
2022/09/08 10:34:19;;;;;;;4.67;1.53;;;;;;;22.78;54.96;99893.78;5073873;28;20439;-70
2022/09/08 10:36:47;;;;;;;6.70;1.83;;;;;;;22.80;54.50;99888.41;5073350;28;20409;-70
2022/09/08 10:39:42;;;;;;;4.50;1.40;;;;;;;22.79;54.75;99892.53;5072813;28;20503;-70
2022/09/08 10:42:35;;;;;;;5.57;1.73;;;;;;;22.83;54.88;99885.50;5056965;28;20431;-70
2022/09/08 10:45:18;;;;;;;5.73;1.50;;;;;;;22.76;53.97;99890.47;5090386;28;20405;-70
2022/09/08 10:48:15;;;;;;;8.30;1.43;;;;;;;22.77;54.28;99889.25;5055664;28;20451;-70
2022/09/08 10:50:50;;;;;;;8.87;1.63;;;;;;;22.80;54.21;99880.59;5087327;28;20404;-70
2022/09/08 10:53:25;;;;;;;6.20;1.10;;;;;;;22.82;53.96;99883.06;5052436;28;20427;-70
2022/09/08 10:56:32;;;;;;;6.13;1.30;;;;;;;22.84;53.76;99890.03;5052247;28;20405;-70
2022/09/08 10:59:22;;;;;;;7.00;1.73;;;;;;;22.81;53.72;99888.00;5068072;28;20435;-70
2022/09/08 11:02:03;;;;;;;3.93;1.10;;;;;;;22.89;53.64;99892.47;5090337;28;20428;-70
2022/09/08 11:04:47;;;;;;;5.23;1.50;;;;;;;22.89;53.86;99885.91;5071783;28;20479;-70
2022/09/08 11:07:18;;;;;;;6.80;1.53;;;;;;;22.89;53.81;99877.25;5090130;28;20802;-70
2022/09/08 11:10:15;;;;;;;6.40;1.27;;;;;;;22.86;54.13;99878.91;5090296;28;20872;-70
2022/09/08 11:13:03;;;;;;;4.20;1.03;;;;;;;22.83;53.40;99881.81;5075435;28;20432;-71
2022/09/08 11:15:30;;;;;;;4.23;1.30;;;;;;;22.83;53.90;99882.63;5072412;28;21498;-70
2022/09/08 11:18:09;;;;;;;5.97;1.20;;;;;;;22.85;54.35;99876.44;5072661;28;20408;-71
2022/09/08 11:20:35;;;;;;;5.07;1.30;;;;;;;22.85;54.23;99862.88;5073616;28;20450;-70
2022/09/08 11:23:18;;;;;;;3.90;1.00;;;;;;;22.93;54.14;99866.53;5090736;28;20400;-70
2022/09/08 11:25:53;;;;;;;4.77;1.60;;;;;;;22.95;54.33;99867.75;5056009;28;20226;-71
2022/09/08 11:28:55;;;;;;;7.47;1.23;;;;;;;23.01;53.92;99865.25;5090525;28;20452;-71
2022/09/08 11:31:36;;;;;;;5.70;1.17;;;;;;;23.05;53.79;99869.75;5071898;28;20420;-71
2022/09/08 11:34:20;;;;;;;6.47;1.17;;;;;;;23.08;53.47;99857.38;5065691;28;20778;-71
2022/09/08 11:37:03;;;;;;;4.40;1.23;;;;;;;23.06;53.53;99865.63;5070554;28;20409;-71
2022/09/08 11:39:31;;;;;;;7.57;1.70;;;;;;;23.09;53.21;99864.75;5068682;28;20889;-71
2022/09/08 11:42:00;;;;;;;4.57;1.20;;;;;;;23.03;53.23;99857.00;5070029;28;20436;-71
2022/09/08 11:44:39;;;;;;;6.50;1.93;;;;;;;23.07;53.27;99855.72;5069689;28;20889;-71
2022/09/08 11:47:19;;;;;;;5.00;1.63;;;;;;;23.11;53.35;99856.53;5069022;28;20463;-71
2022/09/08 11:49:56;;;;;;;4.67;1.40;;;;;;;23.17;52.94;99856.88;5068228;28;20460;-71
2022/09/08 11:52:21;;;;;;;8.80;1.80;;;;;;;23.13;52.68;99851.16;5075429;28;20430;-71
2022/09/08 11:54:56;;;;;;;4.70;0.93;;;;;;;23.14;52.33;99852.78;5089562;28;20405;-71
2022/09/08 11:58:05;;;;;;;3.40;1.20;;;;;;;23.19;52.36;99855.25;5071210;28;20508;-71
2022/09/08 12:00:38;;;;;;;9.20;1.97;;;;;;;23.21;51.85;99847.03;4979288;28;20429;-71
2022/09/08 12:03:18;;;;;;;7.07;1.43;;;;;;;23.28;51.71;99858.47;5067591;28;20495;-71
2022/09/08 12:05:52;;;;;;;4.77;1.23;;;;;;;23.27;51.98;99853.97;5089493;28;20910;-71
2022/09/08 12:08:40;;;;;;;5.33;1.23;;;;;;;23.30;51.70;99846.53;5089598;28;20455;-71
2022/09/08 12:11:30;;;;;;;7.37;1.67;;;;;;;23.31;51.64;99857.63;5074068;28;20416;-71